createdAt,value
2023-07-18T00:01:42.539Z,100.00
2023-07-18T00:04:12.450Z,100.00
2023-07-18T00:06:43.211Z,100.00
2023-07-18T00:09:12.577Z,100.00
2023-07-18T00:11:42.449Z,100.00
2023-07-18T00:14:10.818Z,100.00
2023-07-18T00:16:39.258Z,100.00
2023-07-18T00:19:07.858Z,100.00
2023-07-18T00:21:40.552Z,100.00
2023-07-18T00:24:08.908Z,100.00
2023-07-18T00:26:37.402Z,100.00
2023-07-18T00:29:07.285Z,100.00
2023-07-18T00:31:35.569Z,100.00
2023-07-18T00:34:06.636Z,100.00
2023-07-18T00:36:35.084Z,100.00
2023-07-18T00:39:05.339Z,100.00
2023-07-18T00:41:35.394Z,100.00
2023-07-18T00:44:04.309Z,100.00
2023-07-18T00:46:32.571Z,100.00
2023-07-18T00:49:01.287Z,100.00
2023-07-18T00:51:29.756Z,100.00
2023-07-18T00:53:58.124Z,100.00
2023-07-18T00:56:27.714Z,100.00
2023-07-18T00:58:56.510Z,100.00
2023-07-18T01:01:24.818Z,100.00
2023-07-18T01:03:54.475Z,100.00
2023-07-18T01:06:22.972Z,100.00
2023-07-18T01:08:51.132Z,100.00
2023-07-18T01:11:20.854Z,100.00
2023-07-18T01:13:50.733Z,100.00
2023-07-18T01:16:18.949Z,100.00
2023-07-18T01:18:47.514Z,100.00
2023-07-18T01:21:20.574Z,100.00
2023-07-18T01:23:48.930Z,100.00
2023-07-18T01:26:17.428Z,100.00
2023-07-18T01:28:45.595Z,100.00
2023-07-18T01:31:14.139Z,100.00
2023-07-18T01:33:43.684Z,100.00
2023-07-18T01:36:11.944Z,100.00
2023-07-18T01:38:41.796Z,100.00
2023-07-18T01:41:09.965Z,100.00
2023-07-18T01:43:38.180Z,100.00
2023-07-18T01:46:06.659Z,100.00
2023-07-18T01:48:36.444Z,100.00
2023-07-18T01:51:05.021Z,100.00
2023-07-18T01:53:33.503Z,100.00
2023-07-18T01:56:03.125Z,100.00
2023-07-18T01:58:31.280Z,100.00
2023-07-18T02:00:59.807Z,100.00
2023-07-18T02:03:28.156Z,100.00
2023-07-18T02:05:56.519Z,100.00
2023-07-18T02:08:25.158Z,100.00
2023-07-18T02:10:53.368Z,100.00
2023-07-18T02:13:23.608Z,100.00
2023-07-18T02:15:51.810Z,100.00
2023-07-18T02:18:20.243Z,100.00
2023-07-18T02:20:48.696Z,100.00
2023-07-18T02:23:16.871Z,100.00
2023-07-18T02:25:45.024Z,100.00
2023-07-18T02:28:13.823Z,100.00
2023-07-18T02:30:43.623Z,100.00
2023-07-18T02:33:12.292Z,100.00
2023-07-18T02:35:40.578Z,100.00
2023-07-18T02:38:08.741Z,100.00
2023-07-18T02:40:37.196Z,100.00
2023-07-18T02:43:05.359Z,100.00
2023-07-18T02:45:33.688Z,100.00
2023-07-18T02:48:03.642Z,100.00
2023-07-18T02:50:31.763Z,100.00
2023-07-18T02:53:00.453Z,100.00
2023-07-18T02:55:29.002Z,100.00
2023-07-18T02:58:00.124Z,100.00
2023-07-18T03:00:35.316Z,100.00
2023-07-18T03:03:09.306Z,100.00
2023-07-18T03:05:39.511Z,100.00
2023-07-18T03:08:09.224Z,100.00
2023-07-18T03:10:39.265Z,100.00
2023-07-18T03:13:08.687Z,100.00
2023-07-18T03:15:41.249Z,100.00
2023-07-18T03:18:16.205Z,100.00
2023-07-18T03:20:48.264Z,100.00
2023-07-18T03:23:20.629Z,100.00
2023-07-18T03:25:49.962Z,100.00
2023-07-18T03:28:21.485Z,100.00
2023-07-18T03:30:50.850Z,100.00
2023-07-18T03:33:22.316Z,100.00
2023-07-18T03:35:51.663Z,100.00
2023-07-18T03:38:21.380Z,100.00
2023-07-18T03:40:51.265Z,100.00
2023-07-18T03:43:23.228Z,100.00
2023-07-18T03:45:56.690Z,100.00
2023-07-18T03:48:29.718Z,100.00
2023-07-18T03:50:58.173Z,100.00
2023-07-18T03:53:27.086Z,100.00
2023-07-18T03:55:57.518Z,100.00
2023-07-18T03:58:25.771Z,100.00
2023-07-18T04:00:53.939Z,100.00
2023-07-18T04:03:22.118Z,100.00
2023-07-18T04:05:52.628Z,100.00
2023-07-18T04:08:20.819Z,100.00
2023-07-18T04:10:48.996Z,100.00
2023-07-18T04:13:17.589Z,100.00
2023-07-18T04:15:45.816Z,100.00
2023-07-18T04:18:14.016Z,100.00
2023-07-18T04:20:42.480Z,100.00
2023-07-18T04:23:12.159Z,100.00
2023-07-18T04:25:56.148Z,100.00
2023-07-18T04:28:24.656Z,100.00
2023-07-18T04:30:53.340Z,100.00
2023-07-18T04:33:22.037Z,100.00
2023-07-18T04:35:50.174Z,100.00
2023-07-18T04:38:20.237Z,100.00
2023-07-18T04:40:48.702Z,100.00
2023-07-18T04:43:33.247Z,100.00
2023-07-18T04:46:06.552Z,100.00
2023-07-18T04:48:35.144Z,100.00
2023-07-18T04:51:03.843Z,100.00
2023-07-18T04:53:34.743Z,100.00
2023-07-18T04:56:02.935Z,100.00
2023-07-18T04:58:31.863Z,100.00
2023-07-18T05:01:01.148Z,100.00
2023-07-18T05:03:31.884Z,100.00
2023-07-18T05:06:03.809Z,100.00
2023-07-18T05:08:33.494Z,100.00
2023-07-18T05:11:02.645Z,100.00
2023-07-18T05:13:31.089Z,100.00
2023-07-18T05:16:01.620Z,100.00
2023-07-18T05:18:30.476Z,100.00
2023-07-18T05:20:59.170Z,100.00
2023-07-18T05:23:27.780Z,100.00
2023-07-18T05:25:58.736Z,100.00
2023-07-18T05:28:26.905Z,100.00
2023-07-18T05:30:55.294Z,100.00
2023-07-18T05:33:23.532Z,100.00
2023-07-18T05:35:53.822Z,100.00
2023-07-18T05:38:22.012Z,100.00
2023-07-18T05:40:50.186Z,100.00
2023-07-18T05:43:21.105Z,100.00
2023-07-18T05:45:49.297Z,100.00
2023-07-18T05:48:17.487Z,100.00
2023-07-18T05:50:46.063Z,100.00
2023-07-18T05:53:14.242Z,100.00
2023-07-18T05:55:42.835Z,100.00
2023-07-18T05:58:12.020Z,100.00
2023-07-18T06:00:41.628Z,100.00
2023-07-18T06:03:10.295Z,100.00
2023-07-18T06:05:42.116Z,100.00
2023-07-18T06:08:11.810Z,100.00
2023-07-18T06:10:40.290Z,100.00
2023-07-18T06:13:08.481Z,100.00
2023-07-18T06:15:36.627Z,100.00
2023-07-18T06:18:06.341Z,100.00
2023-07-18T06:20:34.834Z,100.00
2023-07-18T06:23:03.339Z,100.00
2023-07-18T06:25:34.066Z,100.00
2023-07-18T06:28:03.121Z,100.00
2023-07-18T06:30:31.523Z,100.00
2023-07-18T06:33:00.485Z,100.00
2023-07-18T06:35:30.865Z,100.00
2023-07-18T06:37:59.060Z,100.00
2023-07-18T06:40:27.269Z,100.00
2023-07-18T06:42:55.460Z,100.00
2023-07-18T06:45:25.472Z,100.00
2023-07-18T06:47:53.663Z,100.00
2023-07-18T06:50:22.235Z,100.00
2023-07-18T06:52:52.511Z,100.00
2023-07-18T06:55:21.173Z,100.00
2023-07-18T06:57:50.303Z,100.00
2023-07-18T07:00:21.207Z,100.00
2023-07-18T07:02:49.447Z,100.00
2023-07-18T07:05:21.077Z,100.00
2023-07-18T07:07:50.935Z,100.00
2023-07-18T07:10:21.464Z,100.00
2023-07-18T07:12:50.104Z,100.00
2023-07-18T07:15:18.238Z,100.00
2023-07-18T07:17:46.812Z,100.00
2023-07-18T07:20:15.086Z,100.00
2023-07-18T07:22:45.443Z,100.00
2023-07-18T07:25:14.564Z,100.00
2023-07-18T07:27:45.440Z,100.00
2023-07-18T07:30:16.667Z,100.00
2023-07-18T07:32:45.813Z,100.00
2023-07-18T07:35:14.671Z,100.00
2023-07-18T07:37:43.375Z,100.00
2023-07-18T07:40:12.681Z,100.00
2023-07-18T07:42:41.391Z,100.00
2023-07-18T07:45:12.279Z,100.00
2023-07-18T07:47:40.541Z,100.00
2023-07-18T07:50:09.541Z,100.00
2023-07-18T07:52:38.495Z,100.00
2023-07-18T07:55:17.812Z,100.00
2023-07-18T07:57:50.783Z,100.00
2023-07-18T08:00:22.509Z,100.00
2023-07-18T08:02:50.790Z,100.00
2023-07-18T08:05:19.885Z,100.00
2023-07-18T08:07:48.541Z,100.00
2023-07-18T08:10:17.067Z,100.00
2023-07-18T08:12:45.541Z,100.00
2023-07-18T08:15:13.869Z,100.00
2023-07-18T08:17:43.519Z,100.00
2023-07-18T08:20:14.129Z,100.00
2023-07-18T08:22:42.849Z,100.00
2023-07-18T08:25:11.202Z,100.00
2023-07-18T08:27:39.392Z,100.00
2023-07-18T08:30:08.907Z,100.00
2023-07-18T08:32:37.053Z,100.00
2023-07-18T08:35:07.891Z,100.00
2023-07-18T08:37:36.049Z,100.00
2023-07-18T08:40:06.310Z,100.00
2023-07-18T08:42:34.542Z,100.00
2023-07-18T08:45:04.540Z,100.00
2023-07-18T08:47:35.100Z,100.00
2023-07-18T08:50:03.732Z,100.00
2023-07-18T08:52:40.481Z,100.00
2023-07-18T08:55:13.790Z,100.00
2023-07-18T08:57:46.796Z,100.00
2023-07-18T09:00:16.068Z,100.00
2023-07-18T09:02:44.277Z,100.00
2023-07-18T09:05:31.113Z,100.00
2023-07-18T09:08:00.920Z,100.00
2023-07-18T09:10:29.137Z,96.59
2023-07-18T09:12:57.763Z,100.00
2023-07-18T09:15:26.023Z,100.00
2023-07-18T09:17:56.148Z,100.00
2023-07-18T09:20:25.909Z,100.00
2023-07-18T09:22:57.898Z,99.34
2023-07-18T09:25:28.525Z,100.00
2023-07-18T09:27:57.009Z,100.00
2023-07-18T09:30:26.247Z,98.66
2023-07-18T09:32:55.824Z,97.37
2023-07-18T09:35:25.412Z,98.07
2023-07-18T09:37:59.501Z,99.15
2023-07-18T09:40:29.589Z,97.54
2023-07-18T09:42:58.111Z,98.68
2023-07-18T09:45:29.343Z,96.06
2023-07-18T09:47:59.042Z,93.20
2023-07-18T09:50:27.986Z,95.49
2023-07-18T09:52:56.438Z,86.95
2023-07-18T09:55:26.040Z,89.10
2023-07-18T09:57:57.196Z,87.26
2023-07-18T10:00:25.948Z,97.07
2023-07-18T10:02:55.729Z,94.45
2023-07-18T10:05:24.767Z,96.04
2023-07-18T10:07:53.164Z,94.34
2023-07-18T10:10:21.403Z,94.91
2023-07-18T10:13:03.720Z,94.28
2023-07-18T10:15:31.935Z,92.56
2023-07-18T10:18:18.543Z,91.39
2023-07-18T10:20:59.005Z,95.92
2023-07-18T10:23:41.190Z,91.30
2023-07-18T10:26:10.438Z,91.96
2023-07-18T10:28:47.264Z,86.89
2023-07-18T10:31:31.593Z,86.92
2023-07-18T10:34:10.570Z,86.25
2023-07-18T10:36:39.778Z,85.60
2023-07-18T10:39:14.646Z,84.61
2023-07-18T10:41:46.024Z,87.23
2023-07-18T10:44:16.334Z,89.93
2023-07-18T10:46:45.037Z,86.72
2023-07-18T10:49:13.294Z,88.00
2023-07-18T10:51:41.802Z,89.17
2023-07-18T10:54:10.931Z,84.89
2023-07-18T10:56:39.134Z,85.48
2023-07-18T10:59:07.598Z,84.83
2023-07-18T11:01:37.255Z,83.64
2023-07-18T11:04:08.670Z,82.25
2023-07-18T11:06:37.195Z,88.60
2023-07-18T11:09:06.245Z,85.46
2023-07-18T11:11:34.435Z,84.77
2023-07-18T11:14:03.953Z,81.37
2023-07-18T11:16:32.229Z,83.95
2023-07-18T11:19:03.991Z,84.84
2023-07-18T11:21:32.285Z,83.37
2023-07-18T11:24:03.601Z,83.01
2023-07-18T11:26:33.327Z,81.83
2023-07-18T11:29:02.309Z,76.26
2023-07-18T11:34:07.041Z,80.92
2023-07-18T11:39:05.433Z,73.20
2023-07-18T11:41:34.924Z,68.62
2023-07-18T11:44:03.822Z,76.23
2023-07-18T11:46:38.619Z,72.57
2023-07-18T11:49:08.303Z,69.26
2023-07-18T11:51:36.605Z,67.89
2023-07-18T11:54:05.558Z,66.92
2023-07-18T11:56:33.999Z,70.21
2023-07-18T11:59:02.214Z,68.83
2023-07-18T12:01:30.438Z,75.56
2023-07-18T12:03:58.718Z,70.67
2023-07-18T12:06:28.343Z,72.24
2023-07-18T12:08:56.862Z,74.24
2023-07-18T12:11:25.208Z,66.36
2023-07-18T12:13:53.550Z,66.88
2023-07-18T12:16:21.827Z,68.53
2023-07-18T12:18:50.035Z,64.01
2023-07-18T12:21:19.038Z,66.87
2023-07-18T12:23:48.959Z,68.41
2023-07-18T12:26:18.239Z,62.64
2023-07-18T12:28:46.575Z,62.57
2023-07-18T12:31:16.659Z,60.15
2023-07-18T12:33:44.950Z,66.44
2023-07-18T12:36:13.718Z,62.95
2023-07-18T12:38:41.935Z,59.00
2023-07-18T12:41:11.466Z,66.21
2023-07-18T12:43:39.996Z,66.69
2023-07-18T12:46:08.345Z,63.92
2023-07-18T12:48:36.547Z,56.96
2023-07-18T12:51:05.138Z,55.15
2023-07-18T12:53:33.806Z,56.69
2023-07-18T12:56:01.994Z,63.45
2023-07-18T12:58:35.139Z,62.09
2023-07-18T13:01:05.828Z,54.95
2023-07-18T13:03:34.647Z,58.12
2023-07-18T13:06:07.051Z,53.34
2023-07-18T13:08:35.281Z,63.38
2023-07-18T13:11:03.575Z,56.53
2023-07-18T13:13:33.149Z,59.17
2023-07-18T13:16:01.313Z,59.21
2023-07-18T13:18:29.604Z,60.89
2023-07-18T13:20:57.867Z,62.32
2023-07-18T13:23:26.003Z,64.58
2023-07-18T13:25:54.165Z,61.95
2023-07-18T13:28:22.361Z,61.17
2023-07-18T13:30:51.933Z,56.22
2023-07-18T13:33:22.596Z,59.72
2023-07-18T13:35:50.883Z,53.10
2023-07-18T13:38:19.063Z,53.91
2023-07-18T13:40:47.886Z,57.75
2023-07-18T13:43:16.560Z,56.48
2023-07-18T13:45:49.610Z,54.72
2023-07-18T13:48:22.176Z,53.79
2023-07-18T13:50:52.871Z,54.49
2023-07-18T13:53:26.271Z,53.77
2023-07-18T13:55:54.772Z,58.35
2023-07-18T13:58:23.095Z,55.87
2023-07-18T14:00:56.930Z,53.53
2023-07-18T14:03:35.294Z,51.67
2023-07-18T14:06:05.734Z,49.94
2023-07-18T14:08:34.615Z,47.17
2023-07-18T14:11:04.190Z,50.41
2023-07-18T14:13:32.747Z,47.97
2023-07-18T14:16:01.205Z,48.90
2023-07-18T14:18:31.047Z,46.83
2023-07-18T14:20:59.723Z,48.03
2023-07-18T14:23:28.808Z,47.62
2023-07-18T14:25:57.516Z,48.86
2023-07-18T14:28:25.839Z,47.14
2023-07-18T14:30:54.355Z,49.22
2023-07-18T14:33:26.033Z,47.01
2023-07-18T14:35:59.063Z,46.63
2023-07-18T14:38:27.361Z,47.69
2023-07-18T14:40:55.631Z,47.41
2023-07-18T14:43:30.181Z,47.65
2023-07-18T14:45:58.530Z,50.08
2023-07-18T14:48:26.934Z,49.30
2023-07-18T14:50:57.363Z,49.34
2023-07-18T14:53:27.276Z,45.63
2023-07-18T14:55:56.607Z,46.49
2023-07-18T14:58:24.786Z,46.69
2023-07-18T15:00:53.022Z,46.30
2023-07-18T15:03:21.528Z,47.21
2023-07-18T15:05:49.760Z,50.45
2023-07-18T15:08:19.299Z,45.12
2023-07-18T15:10:48.439Z,48.80
2023-07-18T15:13:20.941Z,48.58
2023-07-18T15:15:54.180Z,47.91
2023-07-18T15:18:24.467Z,46.64
2023-07-18T15:20:52.748Z,47.31
2023-07-18T15:23:22.599Z,43.63
2023-07-18T15:25:51.643Z,45.76
2023-07-18T15:28:19.915Z,45.08
2023-07-18T15:30:48.121Z,48.84
2023-07-18T15:33:27.203Z,45.22
2023-07-18T15:35:56.565Z,44.26
2023-07-18T15:38:27.290Z,46.17
2023-07-18T15:40:55.522Z,46.24
2023-07-18T15:43:24.813Z,49.43
2023-07-18T15:45:53.206Z,46.11
2023-07-18T15:48:21.396Z,47.29
2023-07-18T15:50:50.123Z,46.17
2023-07-18T15:53:20.054Z,45.50
2023-07-18T15:55:50.613Z,47.00
2023-07-18T15:58:20.729Z,47.94
2023-07-18T16:00:50.468Z,48.21
2023-07-18T16:03:18.882Z,46.75
2023-07-18T16:05:47.183Z,45.48
2023-07-18T16:08:15.785Z,48.31
2023-07-18T16:10:52.254Z,46.37
2023-07-18T16:13:22.189Z,48.18
2023-07-18T16:15:50.432Z,47.28
2023-07-18T16:18:19.085Z,48.11
2023-07-18T16:20:49.708Z,49.34
2023-07-18T16:23:18.062Z,49.14
2023-07-18T16:25:46.247Z,47.02
2023-07-18T16:28:16.993Z,48.01
2023-07-18T16:30:47.302Z,48.23
2023-07-18T16:33:15.824Z,48.52
2023-07-18T16:35:44.318Z,48.39
2023-07-18T16:38:12.515Z,49.39
2023-07-18T16:40:40.708Z,50.48
2023-07-18T16:43:08.840Z,51.92
2023-07-18T16:45:40.384Z,53.94
2023-07-18T16:48:09.994Z,51.80
2023-07-18T16:50:38.457Z,54.92
2023-07-18T16:53:06.661Z,53.72
2023-07-18T16:55:34.889Z,53.71
2023-07-18T16:58:03.992Z,55.25
2023-07-18T17:00:32.248Z,54.05
2023-07-18T17:03:00.882Z,53.99
2023-07-18T17:05:30.663Z,56.24
2023-07-18T17:08:02.970Z,53.79
2023-07-18T17:10:32.199Z,55.46
2023-07-18T17:13:00.345Z,54.26
2023-07-18T17:15:30.269Z,55.38
2023-07-18T17:17:58.735Z,50.05
2023-07-18T17:20:27.069Z,51.41
2023-07-18T17:22:57.379Z,54.67
2023-07-18T17:25:27.842Z,55.98
2023-07-18T17:27:56.227Z,55.23
2023-07-18T17:30:26.172Z,56.91
2023-07-18T17:32:55.795Z,56.20
2023-07-18T17:35:24.557Z,56.29
2023-07-18T17:37:56.028Z,54.97
2023-07-18T17:40:26.372Z,55.06
2023-07-18T17:42:55.003Z,55.77
2023-07-18T17:45:24.892Z,56.42
2023-07-18T17:47:58.657Z,58.04
2023-07-18T17:50:27.352Z,59.81
2023-07-18T17:52:57.635Z,59.80
2023-07-18T17:55:28.807Z,59.29
2023-07-18T17:57:59.665Z,60.35
2023-07-18T18:00:28.873Z,59.14
2023-07-18T18:02:57.427Z,61.92
2023-07-18T18:05:45.717Z,60.44
2023-07-18T18:08:15.279Z,60.78
2023-07-18T18:10:45.522Z,64.73
2023-07-18T18:13:14.377Z,65.23
2023-07-18T18:15:56.328Z,64.45
2023-07-18T18:18:29.945Z,64.98
2023-07-18T18:20:58.179Z,65.04
2023-07-18T18:23:37.667Z,67.43
2023-07-18T18:26:10.132Z,69.25
2023-07-18T18:28:43.462Z,72.47
2023-07-18T18:31:12.827Z,77.57
2023-07-18T18:33:42.147Z,80.83
2023-07-18T18:36:12.431Z,81.28
2023-07-18T18:38:41.121Z,83.84
2023-07-18T18:41:11.035Z,85.82
2023-07-18T18:43:39.777Z,87.13
2023-07-18T18:46:08.142Z,88.31
2023-07-18T18:48:36.892Z,89.07
2023-07-18T18:51:05.912Z,89.79
2023-07-18T18:53:34.514Z,90.42
2023-07-18T18:56:03.286Z,90.66
2023-07-18T18:58:34.197Z,92.11
2023-07-18T19:01:02.419Z,91.72
2023-07-18T19:03:30.920Z,92.43
2023-07-18T19:05:59.647Z,92.79
2023-07-18T19:08:27.803Z,93.89
2023-07-18T19:11:07.217Z,94.75
2023-07-18T19:13:38.017Z,95.96
2023-07-18T19:16:07.881Z,96.06
2023-07-18T19:18:37.041Z,96.73
2023-07-18T19:21:05.661Z,98.25
2023-07-18T19:23:37.321Z,99.95
2023-07-18T19:26:06.365Z,100.00
2023-07-18T19:28:34.740Z,100.00
2023-07-18T19:31:04.473Z,100.00
2023-07-18T19:33:33.250Z,100.00
2023-07-18T19:36:01.580Z,100.00
2023-07-18T19:38:30.962Z,100.00
2023-07-18T19:40:59.502Z,100.00
2023-07-18T19:43:27.758Z,100.00
2023-07-18T19:45:55.903Z,100.00
2023-07-18T19:48:26.528Z,100.00
2023-07-18T19:50:55.107Z,100.00
2023-07-18T19:53:25.772Z,100.00
2023-07-18T19:55:54.133Z,100.00
2023-07-18T19:58:24.888Z,100.00
2023-07-18T20:00:53.296Z,100.00
2023-07-18T20:03:21.634Z,100.00
2023-07-18T20:05:51.951Z,100.00
2023-07-18T20:08:20.966Z,100.00
2023-07-18T20:10:50.558Z,100.00
2023-07-18T20:13:19.438Z,100.00
2023-07-18T20:15:47.808Z,100.00
2023-07-18T20:18:17.080Z,100.00
2023-07-18T20:20:46.433Z,100.00
2023-07-18T20:23:16.179Z,100.00
2023-07-18T20:25:44.896Z,100.00
2023-07-18T20:28:13.597Z,100.00
2023-07-18T20:30:41.665Z,100.00
2023-07-18T20:33:10.035Z,100.00
2023-07-18T20:35:38.271Z,100.00
2023-07-18T20:38:06.455Z,100.00
2023-07-18T20:40:37.782Z,100.00
2023-07-18T20:43:06.350Z,100.00
2023-07-18T20:45:35.254Z,100.00
2023-07-18T20:48:04.364Z,100.00
2023-07-18T20:50:33.837Z,100.00
2023-07-18T20:53:02.293Z,100.00
2023-07-18T20:55:30.513Z,100.00
2023-07-18T20:58:00.215Z,100.00
2023-07-18T21:00:28.953Z,100.00
2023-07-18T21:02:59.682Z,100.00
2023-07-18T21:05:28.120Z,100.00
2023-07-18T21:07:56.368Z,100.00
2023-07-18T21:10:24.788Z,100.00
2023-07-18T21:12:53.383Z,100.00
2023-07-18T21:15:23.303Z,100.00
2023-07-18T21:17:51.539Z,100.00
2023-07-18T21:20:20.170Z,100.00
2023-07-18T21:22:48.339Z,100.00
2023-07-18T21:25:16.558Z,100.00
2023-07-18T21:27:44.930Z,100.00
2023-07-18T21:30:13.954Z,100.00
2023-07-18T21:32:43.798Z,100.00
2023-07-18T21:35:15.832Z,100.00
2023-07-18T21:37:44.069Z,100.00
2023-07-18T21:40:13.089Z,100.00
2023-07-18T21:42:41.254Z,100.00
2023-07-18T21:45:09.757Z,100.00
2023-07-18T21:47:37.982Z,100.00
2023-07-18T21:50:08.122Z,100.00
2023-07-18T21:52:36.531Z,100.00
2023-07-18T21:55:05.083Z,100.00
2023-07-18T21:57:33.232Z,100.00
2023-07-18T22:00:01.352Z,100.00
2023-07-18T22:02:35.463Z,100.00
2023-07-18T22:05:03.818Z,100.00
2023-07-18T22:07:33.560Z,100.00
2023-07-18T22:10:03.276Z,100.00
2023-07-18T22:12:32.294Z,100.00
2023-07-18T22:15:01.363Z,100.00
2023-07-18T22:17:30.786Z,100.00
2023-07-18T22:20:00.080Z,100.00
2023-07-18T22:22:28.498Z,100.00
2023-07-18T22:24:58.531Z,100.00
2023-07-18T22:27:27.467Z,100.00
2023-07-18T22:29:55.998Z,100.00
2023-07-18T22:32:24.628Z,100.00
2023-07-18T22:34:53.339Z,100.00
2023-07-18T22:37:23.774Z,100.00
2023-07-18T22:39:53.971Z,100.00
2023-07-18T22:42:25.040Z,100.00
2023-07-18T22:44:53.664Z,100.00
2023-07-18T22:47:22.329Z,100.00
2023-07-18T22:49:51.496Z,100.00
2023-07-18T22:52:20.335Z,100.00
2023-07-18T22:54:51.206Z,100.00
2023-07-18T22:57:19.661Z,100.00
2023-07-18T22:59:49.412Z,100.00
2023-07-18T23:02:18.221Z,100.00
2023-07-18T23:04:47.667Z,100.00
2023-07-18T23:07:16.561Z,100.00
2023-07-18T23:09:45.271Z,100.00
2023-07-18T23:12:13.714Z,100.00
2023-07-18T23:14:41.876Z,100.00
2023-07-18T23:17:11.746Z,100.00
2023-07-18T23:19:39.943Z,100.00
2023-07-18T23:22:08.601Z,100.00
2023-07-18T23:24:37.559Z,100.00
2023-07-18T23:27:07.101Z,100.00
2023-07-18T23:29:36.239Z,100.00
2023-07-18T23:32:05.164Z,100.00
2023-07-18T23:34:35.080Z,100.00
2023-07-18T23:37:03.662Z,100.00
2023-07-18T23:39:32.272Z,100.00
2023-07-18T23:42:04.455Z,100.00
2023-07-18T23:44:33.509Z,100.00
2023-07-18T23:47:03.180Z,100.00
2023-07-18T23:49:31.515Z,100.00
2023-07-18T23:52:01.473Z,100.00
2023-07-18T23:54:30.274Z,100.00
2023-07-18T23:56:59.401Z,100.00
2023-07-18T23:59:28.152Z,100.00
